sensor_id;sensor_type;location;lat;lon;timestamp;temperature;humidity
52415;DHT22;38340;52.964;6.086;2023-03-07T00:00:39;3.60;99.90
52415;DHT22;38340;52.964;6.086;2023-03-07T00:03:05;3.60;99.90
52415;DHT22;38340;52.964;6.086;2023-03-07T00:05:31;3.60;99.90
52415;DHT22;38340;52.964;6.086;2023-03-07T00:07:58;3.70;99.90
52415;DHT22;38340;52.964;6.086;2023-03-07T00:10:24;3.60;99.90
52415;DHT22;38340;52.964;6.086;2023-03-07T00:12:50;3.60;99.90
52415;DHT22;38340;52.964;6.086;2023-03-07T00:15:16;3.50;99.90
52415;DHT22;38340;52.964;6.086;2023-03-07T00:17:42;3.50;99.90
52415;DHT22;38340;52.964;6.086;2023-03-07T00:20:09;3.50;99.90
52415;DHT22;38340;52.964;6.086;2023-03-07T00:22:42;3.50;99.90
52415;DHT22;38340;52.964;6.086;2023-03-07T00:25:09;3.40;99.90
52415;DHT22;38340;52.964;6.086;2023-03-07T00:27:35;3.30;99.90
52415;DHT22;38340;52.964;6.086;2023-03-07T00:30:02;3.40;99.90
52415;DHT22;38340;52.964;6.086;2023-03-07T00:32:28;3.30;99.90
52415;DHT22;38340;52.964;6.086;2023-03-07T00:34:55;3.40;99.90
52415;DHT22;38340;52.964;6.086;2023-03-07T00:37:22;3.40;99.90
52415;DHT22;38340;52.964;6.086;2023-03-07T00:39:47;3.50;99.90
52415;DHT22;38340;52.964;6.086;2023-03-07T00:42:13;3.40;99.90
52415;DHT22;38340;52.964;6.086;2023-03-07T00:44:39;3.40;99.90
52415;DHT22;38340;52.964;6.086;2023-03-07T00:47:05;3.40;99.90
52415;DHT22;38340;52.964;6.086;2023-03-07T00:49:31;3.50;99.90
52415;DHT22;38340;52.964;6.086;2023-03-07T00:51:57;3.40;99.90
52415;DHT22;38340;52.964;6.086;2023-03-07T00:54:22;3.50;99.90
52415;DHT22;38340;52.964;6.086;2023-03-07T00:56:48;3.50;99.90
52415;DHT22;38340;52.964;6.086;2023-03-07T00:59:14;3.40;99.90
52415;DHT22;38340;52.964;6.086;2023-03-07T01:01:39;3.50;99.90
52415;DHT22;38340;52.964;6.086;2023-03-07T01:04:05;3.40;99.90
52415;DHT22;38340;52.964;6.086;2023-03-07T01:06:32;3.40;99.90
52415;DHT22;38340;52.964;6.086;2023-03-07T01:09:05;3.40;99.90
52415;DHT22;38340;52.964;6.086;2023-03-07T01:11:35;3.50;99.90
52415;DHT22;38340;52.964;6.086;2023-03-07T01:14:04;3.40;99.90
52415;DHT22;38340;52.964;6.086;2023-03-07T01:16:35;3.50;99.90
52415;DHT22;38340;52.964;6.086;2023-03-07T01:19:04;3.40;99.90
52415;DHT22;38340;52.964;6.086;2023-03-07T01:21:35;3.50;99.90
52415;DHT22;38340;52.964;6.086;2023-03-07T01:24:02;3.40;99.90
52415;DHT22;38340;52.964;6.086;2023-03-07T01:26:30;3.40;99.90
52415;DHT22;38340;52.964;6.086;2023-03-07T01:28:58;3.40;99.90
52415;DHT22;38340;52.964;6.086;2023-03-07T01:31:25;3.40;99.90
52415;DHT22;38340;52.964;6.086;2023-03-07T01:33:52;3.40;99.90
52415;DHT22;38340;52.964;6.086;2023-03-07T01:36:23;3.30;99.90
52415;DHT22;38340;52.964;6.086;2023-03-07T01:39:13;3.30;99.90
52415;DHT22;38340;52.964;6.086;2023-03-07T01:41:40;3.40;99.90
52415;DHT22;38340;52.964;6.086;2023-03-07T01:44:21;3.40;99.90
52415;DHT22;38340;52.964;6.086;2023-03-07T01:51:42;3.40;99.90
52415;DHT22;38340;52.964;6.086;2023-03-07T01:54:10;3.50;99.90
52415;DHT22;38340;52.964;6.086;2023-03-07T01:56:37;3.50;99.90
52415;DHT22;38340;52.964;6.086;2023-03-07T01:59:05;3.50;99.90
52415;DHT22;38340;52.964;6.086;2023-03-07T02:01:31;3.50;99.90
52415;DHT22;38340;52.964;6.086;2023-03-07T02:04:05;3.50;99.90
52415;DHT22;38340;52.964;6.086;2023-03-07T02:06:36;3.50;99.90
52415;DHT22;38340;52.964;6.086;2023-03-07T02:09:06;3.50;99.90
52415;DHT22;38340;52.964;6.086;2023-03-07T02:11:39;3.50;99.90
52415;DHT22;38340;52.964;6.086;2023-03-07T02:14:04;3.50;99.90
52415;DHT22;38340;52.964;6.086;2023-03-07T02:16:30;3.50;99.90
52415;DHT22;38340;52.964;6.086;2023-03-07T02:18:56;3.50;99.90
52415;DHT22;38340;52.964;6.086;2023-03-07T02:28:57;3.50;99.90
52415;DHT22;38340;52.964;6.086;2023-03-07T02:31:24;3.40;99.90
52415;DHT22;38340;52.964;6.086;2023-03-07T02:33:50;3.40;99.90
52415;DHT22;38340;52.964;6.086;2023-03-07T02:36:19;3.30;99.90
52415;DHT22;38340;52.964;6.086;2023-03-07T02:38:47;3.20;99.90
52415;DHT22;38340;52.964;6.086;2023-03-07T02:41:16;3.20;99.90
52415;DHT22;38340;52.964;6.086;2023-03-07T02:43:44;3.10;99.90
52415;DHT22;38340;52.964;6.086;2023-03-07T02:46:09;3.10;99.90
52415;DHT22;38340;52.964;6.086;2023-03-07T02:48:35;3.10;99.90
52415;DHT22;38340;52.964;6.086;2023-03-07T02:51:01;3.10;99.90
52415;DHT22;38340;52.964;6.086;2023-03-07T02:53:26;3.00;99.90
52415;DHT22;38340;52.964;6.086;2023-03-07T02:55:52;3.00;99.90
52415;DHT22;38340;52.964;6.086;2023-03-07T02:58:18;3.00;99.90
52415;DHT22;38340;52.964;6.086;2023-03-07T03:00:44;3.10;99.90
52415;DHT22;38340;52.964;6.086;2023-03-07T03:03:09;3.20;99.90
52415;DHT22;38340;52.964;6.086;2023-03-07T03:05:36;3.20;99.90
52415;DHT22;38340;52.964;6.086;2023-03-07T03:08:02;3.20;99.90
52415;DHT22;38340;52.964;6.086;2023-03-07T03:10:28;3.20;99.90
52415;DHT22;38340;52.964;6.086;2023-03-07T03:12:53;3.20;99.90
52415;DHT22;38340;52.964;6.086;2023-03-07T03:15:19;3.20;99.90
52415;DHT22;38340;52.964;6.086;2023-03-07T03:17:45;3.20;99.90
52415;DHT22;38340;52.964;6.086;2023-03-07T03:20:11;3.10;99.90
52415;DHT22;38340;52.964;6.086;2023-03-07T03:22:41;3.10;99.90
52415;DHT22;38340;52.964;6.086;2023-03-07T03:25:08;3.10;99.90
52415;DHT22;38340;52.964;6.086;2023-03-07T03:27:35;3.10;99.90
52415;DHT22;38340;52.964;6.086;2023-03-07T03:30:01;3.00;99.90
52415;DHT22;38340;52.964;6.086;2023-03-07T03:32:29;3.10;99.90
52415;DHT22;38340;52.964;6.086;2023-03-07T03:34:54;3.10;99.90
52415;DHT22;38340;52.964;6.086;2023-03-07T03:37:20;3.00;99.90
52415;DHT22;38340;52.964;6.086;2023-03-07T03:39:46;3.00;99.90
52415;DHT22;38340;52.964;6.086;2023-03-07T03:42:11;3.00;99.90
52415;DHT22;38340;52.964;6.086;2023-03-07T03:44:37;3.10;99.90
52415;DHT22;38340;52.964;6.086;2023-03-07T03:47:03;3.00;99.90
52415;DHT22;38340;52.964;6.086;2023-03-07T03:49:29;3.00;99.90
52415;DHT22;38340;52.964;6.086;2023-03-07T03:51:54;3.00;99.90
52415;DHT22;38340;52.964;6.086;2023-03-07T03:54:20;3.10;99.90
52415;DHT22;38340;52.964;6.086;2023-03-07T03:56:46;3.00;99.90
52415;DHT22;38340;52.964;6.086;2023-03-07T03:59:11;2.90;99.90
52415;DHT22;38340;52.964;6.086;2023-03-07T04:01:37;2.80;99.90
52415;DHT22;38340;52.964;6.086;2023-03-07T04:04:03;2.90;99.90
52415;DHT22;38340;52.964;6.086;2023-03-07T04:06:32;2.80;99.90
52415;DHT22;38340;52.964;6.086;2023-03-07T04:08:58;2.80;99.90
52415;DHT22;38340;52.964;6.086;2023-03-07T04:11:25;2.80;99.90
52415;DHT22;38340;52.964;6.086;2023-03-07T04:13:51;2.80;99.90
52415;DHT22;38340;52.964;6.086;2023-03-07T04:16:18;2.90;99.90
52415;DHT22;38340;52.964;6.086;2023-03-07T04:18:44;2.90;99.90
52415;DHT22;38340;52.964;6.086;2023-03-07T04:21:10;2.90;99.90
52415;DHT22;38340;52.964;6.086;2023-03-07T04:23:36;2.90;99.90
52415;DHT22;38340;52.964;6.086;2023-03-07T04:26:03;3.00;99.90
52415;DHT22;38340;52.964;6.086;2023-03-07T04:28:32;3.00;99.90
52415;DHT22;38340;52.964;6.086;2023-03-07T04:31:22;3.10;99.90
52415;DHT22;38340;52.964;6.086;2023-03-07T04:33:48;3.10;99.90
52415;DHT22;38340;52.964;6.086;2023-03-07T04:36:14;3.10;99.90
52415;DHT22;38340;52.964;6.086;2023-03-07T04:38:43;3.10;99.90
52415;DHT22;38340;52.964;6.086;2023-03-07T04:41:15;3.10;99.90
52415;DHT22;38340;52.964;6.086;2023-03-07T04:43:41;3.20;99.90
52415;DHT22;38340;52.964;6.086;2023-03-07T04:46:07;3.20;99.90
52415;DHT22;38340;52.964;6.086;2023-03-07T04:48:34;3.10;99.90
52415;DHT22;38340;52.964;6.086;2023-03-07T04:50:59;3.00;99.90
52415;DHT22;38340;52.964;6.086;2023-03-07T04:53:25;3.10;99.90
52415;DHT22;38340;52.964;6.086;2023-03-07T04:56:03;3.00;99.90
52415;DHT22;38340;52.964;6.086;2023-03-07T04:58:30;3.10;99.90
52415;DHT22;38340;52.964;6.086;2023-03-07T05:00:57;3.00;99.90
52415;DHT22;38340;52.964;6.086;2023-03-07T05:03:24;3.00;99.90
52415;DHT22;38340;52.964;6.086;2023-03-07T05:05:51;3.00;99.90
52415;DHT22;38340;52.964;6.086;2023-03-07T05:08:16;3.00;99.90
52415;DHT22;38340;52.964;6.086;2023-03-07T05:10:42;3.00;99.90
52415;DHT22;38340;52.964;6.086;2023-03-07T05:13:08;2.90;99.90
52415;DHT22;38340;52.964;6.086;2023-03-07T05:15:34;3.00;99.90
52415;DHT22;38340;52.964;6.086;2023-03-07T05:18:00;3.00;99.90
52415;DHT22;38340;52.964;6.086;2023-03-07T05:20:27;2.90;99.90
52415;DHT22;38340;52.964;6.086;2023-03-07T05:22:57;3.00;99.90
52415;DHT22;38340;52.964;6.086;2023-03-07T05:25:23;3.00;99.90
52415;DHT22;38340;52.964;6.086;2023-03-07T05:27:49;3.00;99.90
52415;DHT22;38340;52.964;6.086;2023-03-07T05:30:14;3.00;99.90
52415;DHT22;38340;52.964;6.086;2023-03-07T05:32:41;3.00;99.90
52415;DHT22;38340;52.964;6.086;2023-03-07T05:35:08;3.00;99.90
52415;DHT22;38340;52.964;6.086;2023-03-07T05:37:35;3.00;99.90
52415;DHT22;38340;52.964;6.086;2023-03-07T05:40:01;3.00;99.90
52415;DHT22;38340;52.964;6.086;2023-03-07T05:42:26;3.00;99.90
52415;DHT22;38340;52.964;6.086;2023-03-07T05:44:52;3.00;99.90
52415;DHT22;38340;52.964;6.086;2023-03-07T05:47:18;3.10;99.90
52415;DHT22;38340;52.964;6.086;2023-03-07T05:49:43;3.10;99.90
52415;DHT22;38340;52.964;6.086;2023-03-07T05:52:09;3.10;99.90
52415;DHT22;38340;52.964;6.086;2023-03-07T05:54:34;3.10;99.90
52415;DHT22;38340;52.964;6.086;2023-03-07T05:57:00;3.10;99.90
52415;DHT22;38340;52.964;6.086;2023-03-07T05:59:26;3.10;99.90
52415;DHT22;38340;52.964;6.086;2023-03-07T06:01:51;3.10;99.90
52415;DHT22;38340;52.964;6.086;2023-03-07T06:04:17;3.00;99.90
52415;DHT22;38340;52.964;6.086;2023-03-07T06:06:43;3.00;99.90
52415;DHT22;38340;52.964;6.086;2023-03-07T06:09:08;3.00;99.90
52415;DHT22;38340;52.964;6.086;2023-03-07T06:11:34;3.00;99.90
52415;DHT22;38340;52.964;6.086;2023-03-07T06:14:00;3.00;99.90
52415;DHT22;38340;52.964;6.086;2023-03-07T06:16:25;3.00;99.90
52415;DHT22;38340;52.964;6.086;2023-03-07T06:18:51;3.00;99.90
52415;DHT22;38340;52.964;6.086;2023-03-07T06:21:17;3.00;99.90
52415;DHT22;38340;52.964;6.086;2023-03-07T06:23:43;2.90;99.90
52415;DHT22;38340;52.964;6.086;2023-03-07T06:26:10;2.90;99.90
52415;DHT22;38340;52.964;6.086;2023-03-07T06:28:37;2.90;99.90
52415;DHT22;38340;52.964;6.086;2023-03-07T06:31:11;2.80;99.90
52415;DHT22;38340;52.964;6.086;2023-03-07T06:33:38;2.90;99.90
52415;DHT22;38340;52.964;6.086;2023-03-07T06:36:05;2.90;99.90
52415;DHT22;38340;52.964;6.086;2023-03-07T06:38:31;2.90;99.90
52415;DHT22;38340;52.964;6.086;2023-03-07T06:40:57;3.00;99.90
52415;DHT22;38340;52.964;6.086;2023-03-07T06:43:23;3.00;99.90
52415;DHT22;38340;52.964;6.086;2023-03-07T06:45:48;3.00;99.90
52415;DHT22;38340;52.964;6.086;2023-03-07T06:48:14;3.00;99.90
52415;DHT22;38340;52.964;6.086;2023-03-07T06:50:40;2.90;99.90
52415;DHT22;38340;52.964;6.086;2023-03-07T06:53:05;2.70;99.90
52415;DHT22;38340;52.964;6.086;2023-03-07T06:55:31;2.60;99.90
52415;DHT22;38340;52.964;6.086;2023-03-07T06:57:57;2.60;99.90
52415;DHT22;38340;52.964;6.086;2023-03-07T07:00:22;2.60;99.90
52415;DHT22;38340;52.964;6.086;2023-03-07T07:02:48;2.50;99.90
52415;DHT22;38340;52.964;6.086;2023-03-07T07:05:14;2.50;99.90
52415;DHT22;38340;52.964;6.086;2023-03-07T07:07:40;2.50;99.90
52415;DHT22;38340;52.964;6.086;2023-03-07T07:10:06;2.40;99.90
52415;DHT22;38340;52.964;6.086;2023-03-07T07:12:31;2.50;99.90
52415;DHT22;38340;52.964;6.086;2023-03-07T07:14:57;2.40;99.90
52415;DHT22;38340;52.964;6.086;2023-03-07T07:17:27;2.50;99.90
52415;DHT22;38340;52.964;6.086;2023-03-07T07:19:53;2.50;99.90
52415;DHT22;38340;52.964;6.086;2023-03-07T07:22:19;2.50;99.90
52415;DHT22;38340;52.964;6.086;2023-03-07T07:24:44;2.60;99.90
52415;DHT22;38340;52.964;6.086;2023-03-07T07:27:10;2.60;99.90
52415;DHT22;38340;52.964;6.086;2023-03-07T07:29:37;2.60;99.90
52415;DHT22;38340;52.964;6.086;2023-03-07T07:32:03;2.60;99.90
52415;DHT22;38340;52.964;6.086;2023-03-07T07:34:28;2.70;99.90
52415;DHT22;38340;52.964;6.086;2023-03-07T07:36:54;2.70;99.90
52415;DHT22;38340;52.964;6.086;2023-03-07T07:39:21;2.70;99.90
52415;DHT22;38340;52.964;6.086;2023-03-07T07:41:47;2.70;99.90
52415;DHT22;38340;52.964;6.086;2023-03-07T07:44:13;2.80;99.90
52415;DHT22;38340;52.964;6.086;2023-03-07T07:46:39;2.80;99.90
52415;DHT22;38340;52.964;6.086;2023-03-07T07:49:04;2.80;99.90
52415;DHT22;38340;52.964;6.086;2023-03-07T07:51:30;2.80;99.90
52415;DHT22;38340;52.964;6.086;2023-03-07T07:53:56;2.80;99.90
52415;DHT22;38340;52.964;6.086;2023-03-07T07:56:21;2.80;99.90
52415;DHT22;38340;52.964;6.086;2023-03-07T07:58:47;2.80;99.90
52415;DHT22;38340;52.964;6.086;2023-03-07T08:01:30;2.90;99.90
52415;DHT22;38340;52.964;6.086;2023-03-07T08:03:56;2.90;99.90
52415;DHT22;38340;52.964;6.086;2023-03-07T08:06:24;2.90;99.90
52415;DHT22;38340;52.964;6.086;2023-03-07T08:08:51;3.00;99.90
52415;DHT22;38340;52.964;6.086;2023-03-07T08:11:18;3.00;99.90
52415;DHT22;38340;52.964;6.086;2023-03-07T08:13:44;3.00;99.90
52415;DHT22;38340;52.964;6.086;2023-03-07T08:16:11;3.00;99.90
52415;DHT22;38340;52.964;6.086;2023-03-07T08:18:37;3.10;99.90
52415;DHT22;38340;52.964;6.086;2023-03-07T08:21:03;3.10;99.90
52415;DHT22;38340;52.964;6.086;2023-03-07T08:23:29;3.10;99.90
52415;DHT22;38340;52.964;6.086;2023-03-07T08:26:01;3.10;99.90
52415;DHT22;38340;52.964;6.086;2023-03-07T08:28:27;3.10;99.90
52415;DHT22;38340;52.964;6.086;2023-03-07T08:30:52;3.20;99.90
52415;DHT22;38340;52.964;6.086;2023-03-07T08:33:18;3.20;99.90
52415;DHT22;38340;52.964;6.086;2023-03-07T08:35:44;3.20;99.90
52415;DHT22;38340;52.964;6.086;2023-03-07T08:38:10;3.30;99.90
52415;DHT22;38340;52.964;6.086;2023-03-07T08:40:35;3.30;99.90
52415;DHT22;38340;52.964;6.086;2023-03-07T08:43:01;3.30;99.90
52415;DHT22;38340;52.964;6.086;2023-03-07T08:45:27;3.40;99.90
52415;DHT22;38340;52.964;6.086;2023-03-07T08:47:53;3.40;99.90
52415;DHT22;38340;52.964;6.086;2023-03-07T08:50:25;3.40;99.90
52415;DHT22;38340;52.964;6.086;2023-03-07T08:52:51;3.50;99.90
52415;DHT22;38340;52.964;6.086;2023-03-07T08:55:17;3.50;99.90
52415;DHT22;38340;52.964;6.086;2023-03-07T08:57:43;3.50;99.90
52415;DHT22;38340;52.964;6.086;2023-03-07T09:00:10;3.50;99.90
52415;DHT22;38340;52.964;6.086;2023-03-07T09:02:37;3.50;99.90
52415;DHT22;38340;52.964;6.086;2023-03-07T09:05:03;3.60;99.90
52415;DHT22;38340;52.964;6.086;2023-03-07T09:07:29;3.60;99.90
52415;DHT22;38340;52.964;6.086;2023-03-07T09:09:54;3.60;99.90
52415;DHT22;38340;52.964;6.086;2023-03-07T09:12:20;3.60;99.90
52415;DHT22;38340;52.964;6.086;2023-03-07T09:14:46;3.20;99.90
52415;DHT22;38340;52.964;6.086;2023-03-07T09:17:11;2.50;99.90
52415;DHT22;38340;52.964;6.086;2023-03-07T09:19:37;2.30;99.90
52415;DHT22;38340;52.964;6.086;2023-03-07T09:22:03;2.20;99.90
52415;DHT22;38340;52.964;6.086;2023-03-07T09:24:29;2.20;99.90
52415;DHT22;38340;52.964;6.086;2023-03-07T09:26:55;2.20;99.90
52415;DHT22;38340;52.964;6.086;2023-03-07T09:29:21;2.30;99.90
52415;DHT22;38340;52.964;6.086;2023-03-07T09:31:46;2.40;99.90
52415;DHT22;38340;52.964;6.086;2023-03-07T09:34:12;2.60;99.90
52415;DHT22;38340;52.964;6.086;2023-03-07T09:36:38;2.70;99.90
52415;DHT22;38340;52.964;6.086;2023-03-07T09:39:04;2.80;99.90
52415;DHT22;38340;52.964;6.086;2023-03-07T09:47:33;3.00;99.90
52415;DHT22;38340;52.964;6.086;2023-03-07T09:50:16;3.00;99.90
52415;DHT22;38340;52.964;6.086;2023-03-07T09:52:44;3.00;99.90
52415;DHT22;38340;52.964;6.086;2023-03-07T09:55:14;3.10;99.90
52415;DHT22;38340;52.964;6.086;2023-03-07T09:57:49;3.10;99.90
52415;DHT22;38340;52.964;6.086;2023-03-07T10:00:43;3.20;99.90
52415;DHT22;38340;52.964;6.086;2023-03-07T10:05:49;3.30;99.90
52415;DHT22;38340;52.964;6.086;2023-03-07T10:08:36;3.40;99.90
52415;DHT22;38340;52.964;6.086;2023-03-07T10:24:55;4.20;99.90
52415;DHT22;38340;52.964;6.086;2023-03-07T10:27:26;4.30;99.90
52415;DHT22;38340;52.964;6.086;2023-03-07T10:29:56;4.50;99.90
52415;DHT22;38340;52.964;6.086;2023-03-07T10:32:31;4.60;99.90
52415;DHT22;38340;52.964;6.086;2023-03-07T10:34:59;4.70;99.90
52415;DHT22;38340;52.964;6.086;2023-03-07T10:37:55;4.70;99.90
52415;DHT22;38340;52.964;6.086;2023-03-07T10:43:27;4.70;99.90
52415;DHT22;38340;52.964;6.086;2023-03-07T10:46:20;4.80;99.90
52415;DHT22;38340;52.964;6.086;2023-03-07T10:48:49;4.80;90.70
52415;DHT22;38340;52.964;6.086;2023-03-07T10:54:03;4.90;31.80
52415;DHT22;38340;52.964;6.086;2023-03-07T10:56:30;3.90;1.00
52415;DHT22;38340;52.964;6.086;2023-03-07T11:01:24;2.70;99.90
52415;DHT22;38340;52.964;6.086;2023-03-07T11:04:03;2.60;99.90
52415;DHT22;38340;52.964;6.086;2023-03-07T11:06:37;2.70;99.90
52415;DHT22;38340;52.964;6.086;2023-03-07T11:11:51;3.10;99.90
52415;DHT22;38340;52.964;6.086;2023-03-07T11:14:16;3.20;99.90
52415;DHT22;38340;52.964;6.086;2023-03-07T11:16:54;3.50;99.90
52415;DHT22;38340;52.964;6.086;2023-03-07T11:19:39;3.70;99.90
52415;DHT22;38340;52.964;6.086;2023-03-07T11:22:32;3.90;99.90
52415;DHT22;38340;52.964;6.086;2023-03-07T11:25:12;4.10;99.90
52415;DHT22;38340;52.964;6.086;2023-03-07T11:27:55;4.20;99.90
52415;DHT22;38340;52.964;6.086;2023-03-07T11:30:29;4.40;99.90
52415;DHT22;38340;52.964;6.086;2023-03-07T11:41:37;4.50;99.90
52415;DHT22;38340;52.964;6.086;2023-03-07T11:47:23;4.50;99.90
52415;DHT22;38340;52.964;6.086;2023-03-07T11:53:17;4.60;99.90
52415;DHT22;38340;52.964;6.086;2023-03-07T11:59:24;4.70;99.90
52415;DHT22;38340;52.964;6.086;2023-03-07T12:01:44;4.80;55.80
52415;DHT22;38340;52.964;6.086;2023-03-07T12:07:21;4.90;99.90
52415;DHT22;38340;52.964;6.086;2023-03-07T12:09:53;4.90;95.80
52415;DHT22;38340;52.964;6.086;2023-03-07T12:15:20;5.00;99.90
52415;DHT22;38340;52.964;6.086;2023-03-07T12:23:47;4.90;99.90
52415;DHT22;38340;52.964;6.086;2023-03-07T12:26:35;4.90;1.00
52415;DHT22;38340;52.964;6.086;2023-03-07T12:29:14;4.80;99.90
52415;DHT22;38340;52.964;6.086;2023-03-07T12:31:46;4.90;99.90
52415;DHT22;38340;52.964;6.086;2023-03-07T12:34:34;4.80;99.90
52415;DHT22;38340;52.964;6.086;2023-03-07T12:37:08;4.80;99.90
52415;DHT22;38340;52.964;6.086;2023-03-07T12:39:58;4.80;99.90
52415;DHT22;38340;52.964;6.086;2023-03-07T12:42:36;4.70;1.00
52415;DHT22;38340;52.964;6.086;2023-03-07T12:45:12;4.70;1.00
52415;DHT22;38340;52.964;6.086;2023-03-07T12:50:36;4.90;99.90
52415;DHT22;38340;52.964;6.086;2023-03-07T12:53:10;5.10;1.00
52415;DHT22;38340;52.964;6.086;2023-03-07T12:55:56;5.20;1.00
52415;DHT22;38340;52.964;6.086;2023-03-07T12:58:40;5.20;99.90
52415;DHT22;38340;52.964;6.086;2023-03-07T13:01:14;5.20;99.90
52415;DHT22;38340;52.964;6.086;2023-03-07T13:04:28;5.30;1.00
52415;DHT22;38340;52.964;6.086;2023-03-07T13:07:12;5.40;46.00
52415;DHT22;38340;52.964;6.086;2023-03-07T13:09:48;5.40;99.90
52415;DHT22;38340;52.964;6.086;2023-03-07T13:14:44;4.90;99.90
52415;DHT22;38340;52.964;6.086;2023-03-07T13:17:11;4.60;1.00
52415;DHT22;38340;52.964;6.086;2023-03-07T13:24:48;4.60;99.90
52415;DHT22;38340;52.964;6.086;2023-03-07T13:53:13;4.80;99.90
52415;DHT22;38340;52.964;6.086;2023-03-07T13:55:43;4.90;99.90
52415;DHT22;38340;52.964;6.086;2023-03-07T13:58:27;5.10;1.00
52415;DHT22;38340;52.964;6.086;2023-03-07T14:01:02;5.00;99.90
52415;DHT22;38340;52.964;6.086;2023-03-07T14:03:31;4.90;99.90
52415;DHT22;38340;52.964;6.086;2023-03-07T14:06:14;4.60;1.00
52415;DHT22;38340;52.964;6.086;2023-03-07T14:08:42;4.40;99.90
52415;DHT22;38340;52.964;6.086;2023-03-07T14:11:26;4.40;99.90
52415;DHT22;38340;52.964;6.086;2023-03-07T14:16:41;4.40;99.90
52415;DHT22;38340;52.964;6.086;2023-03-07T14:19:51;4.40;1.00
52415;DHT22;38340;52.964;6.086;2023-03-07T14:22:30;4.60;94.20
52415;DHT22;38340;52.964;6.086;2023-03-07T14:25:45;4.90;1.00
52415;DHT22;38340;52.964;6.086;2023-03-07T14:28:18;5.10;1.00
52415;DHT22;38340;52.964;6.086;2023-03-07T14:30:53;5.20;99.90
52415;DHT22;38340;52.964;6.086;2023-03-07T14:33:20;5.20;99.90
52415;DHT22;38340;52.964;6.086;2023-03-07T14:35:46;5.20;99.90
52415;DHT22;38340;52.964;6.086;2023-03-07T14:38:20;5.40;99.90
52415;DHT22;38340;52.964;6.086;2023-03-07T14:46:43;5.10;99.90
52415;DHT22;38340;52.964;6.086;2023-03-07T14:52:04;5.30;1.00
52415;DHT22;38340;52.964;6.086;2023-03-07T14:54:32;5.20;9.60
52415;DHT22;38340;52.964;6.086;2023-03-07T14:56:59;4.90;1.00
52415;DHT22;38340;52.964;6.086;2023-03-07T14:59:25;4.30;99.90
52415;DHT22;38340;52.964;6.086;2023-03-07T15:01:51;4.20;1.00
52415;DHT22;38340;52.964;6.086;2023-03-07T15:04:30;4.00;99.90
52415;DHT22;38340;52.964;6.086;2023-03-07T15:07:01;4.10;99.90
52415;DHT22;38340;52.964;6.086;2023-03-07T15:09:29;4.10;99.90
52415;DHT22;38340;52.964;6.086;2023-03-07T15:15:03;4.40;99.90
52415;DHT22;38340;52.964;6.086;2023-03-07T15:17:36;4.50;99.90
52415;DHT22;38340;52.964;6.086;2023-03-07T15:20:15;4.50;1.00
52415;DHT22;38340;52.964;6.086;2023-03-07T15:22:41;4.60;99.90
52415;DHT22;38340;52.964;6.086;2023-03-07T15:25:21;4.50;99.90
52415;DHT22;38340;52.964;6.086;2023-03-07T15:28:00;4.40;99.90
52415;DHT22;38340;52.964;6.086;2023-03-07T15:30:31;4.40;1.00
52415;DHT22;38340;52.964;6.086;2023-03-07T15:33:13;4.30;1.00
52415;DHT22;38340;52.964;6.086;2023-03-07T15:35:41;4.30;1.00
52415;DHT22;38340;52.964;6.086;2023-03-07T15:40:40;4.30;99.90
52415;DHT22;38340;52.964;6.086;2023-03-07T15:43:16;4.40;1.00
52415;DHT22;38340;52.964;6.086;2023-03-07T15:45:44;4.50;99.90
52415;DHT22;38340;52.964;6.086;2023-03-07T15:50:53;4.20;1.00
52415;DHT22;38340;52.964;6.086;2023-03-07T15:53:26;4.10;99.90
52415;DHT22;38340;52.964;6.086;2023-03-07T15:56:01;4.10;99.90
52415;DHT22;38340;52.964;6.086;2023-03-07T15:58:28;4.30;99.90
52415;DHT22;38340;52.964;6.086;2023-03-07T16:01:18;4.50;99.90
52415;DHT22;38340;52.964;6.086;2023-03-07T16:03:52;4.40;99.90
52415;DHT22;38340;52.964;6.086;2023-03-07T16:09:04;4.30;1.00
52415;DHT22;38340;52.964;6.086;2023-03-07T16:11:31;4.10;4.00
52415;DHT22;38340;52.964;6.086;2023-03-07T16:13:57;4.00;1.00
52415;DHT22;38340;52.964;6.086;2023-03-07T16:16:25;3.90;1.00
52415;DHT22;38340;52.964;6.086;2023-03-07T16:18:52;3.80;1.00
52415;DHT22;38340;52.964;6.086;2023-03-07T16:21:19;3.60;64.20
52415;DHT22;38340;52.964;6.086;2023-03-07T16:23:45;3.40;99.90
52415;DHT22;38340;52.964;6.086;2023-03-07T16:26:13;3.30;99.90
52415;DHT22;38340;52.964;6.086;2023-03-07T16:28:41;3.10;99.90
52415;DHT22;38340;52.964;6.086;2023-03-07T16:31:11;3.00;87.50
52415;DHT22;38340;52.964;6.086;2023-03-07T16:33:37;3.00;99.90
52415;DHT22;38340;52.964;6.086;2023-03-07T16:36:03;2.80;99.90
52415;DHT22;38340;52.964;6.086;2023-03-07T16:38:28;2.70;99.90
52415;DHT22;38340;52.964;6.086;2023-03-07T16:40:55;2.70;99.90
52415;DHT22;38340;52.964;6.086;2023-03-07T16:43:36;2.60;99.90
52415;DHT22;38340;52.964;6.086;2023-03-07T16:46:11;2.50;99.90
52415;DHT22;38340;52.964;6.086;2023-03-07T16:48:38;2.50;99.90
52415;DHT22;38340;52.964;6.086;2023-03-07T16:51:04;2.50;99.90
52415;DHT22;38340;52.964;6.086;2023-03-07T16:53:30;2.40;99.90
52415;DHT22;38340;52.964;6.086;2023-03-07T16:55:57;2.20;99.90
52415;DHT22;38340;52.964;6.086;2023-03-07T16:58:31;2.00;99.90
52415;DHT22;38340;52.964;6.086;2023-03-07T17:00:58;2.00;99.90
52415;DHT22;38340;52.964;6.086;2023-03-07T17:03:25;1.90;99.90
52415;DHT22;38340;52.964;6.086;2023-03-07T17:05:51;1.70;99.90
52415;DHT22;38340;52.964;6.086;2023-03-07T17:08:17;1.60;99.90
52415;DHT22;38340;52.964;6.086;2023-03-07T17:10:43;1.50;99.90
52415;DHT22;38340;52.964;6.086;2023-03-07T17:13:11;1.20;99.90
52415;DHT22;38340;52.964;6.086;2023-03-07T17:15:39;1.10;99.90
52415;DHT22;38340;52.964;6.086;2023-03-07T17:18:05;1.10;99.90
52415;DHT22;38340;52.964;6.086;2023-03-07T17:20:31;0.90;99.90
52415;DHT22;38340;52.964;6.086;2023-03-07T17:22:58;0.90;99.90
52415;DHT22;38340;52.964;6.086;2023-03-07T17:25:25;0.80;99.90
52415;DHT22;38340;52.964;6.086;2023-03-07T17:27:58;0.80;99.90
52415;DHT22;38340;52.964;6.086;2023-03-07T17:30:27;0.70;99.90
52415;DHT22;38340;52.964;6.086;2023-03-07T17:32:53;0.60;99.90
52415;DHT22;38340;52.964;6.086;2023-03-07T17:35:19;0.60;99.90
52415;DHT22;38340;52.964;6.086;2023-03-07T17:37:45;0.50;99.90
52415;DHT22;38340;52.964;6.086;2023-03-07T17:40:13;0.40;99.90
52415;DHT22;38340;52.964;6.086;2023-03-07T17:42:41;0.40;99.90
52415;DHT22;38340;52.964;6.086;2023-03-07T17:45:08;0.30;99.90
52415;DHT22;38340;52.964;6.086;2023-03-07T17:47:34;0.30;99.90
52415;DHT22;38340;52.964;6.086;2023-03-07T17:50:00;0.30;99.90
52415;DHT22;38340;52.964;6.086;2023-03-07T17:52:26;0.20;99.90
52415;DHT22;38340;52.964;6.086;2023-03-07T17:54:52;0.20;99.90
52415;DHT22;38340;52.964;6.086;2023-03-07T17:57:18;0.20;99.90
52415;DHT22;38340;52.964;6.086;2023-03-07T17:59:45;0.30;99.90
52415;DHT22;38340;52.964;6.086;2023-03-07T18:02:12;0.30;99.90
52415;DHT22;38340;52.964;6.086;2023-03-07T18:04:38;0.30;99.90
52415;DHT22;38340;52.964;6.086;2023-03-07T18:07:04;0.30;99.90
52415;DHT22;38340;52.964;6.086;2023-03-07T18:09:30;0.40;99.90
52415;DHT22;38340;52.964;6.086;2023-03-07T18:11:56;0.40;99.90
52415;DHT22;38340;52.964;6.086;2023-03-07T18:14:22;0.30;99.90